createdAt,value
2017-11-23T00:01:27.527Z,94.18
2017-11-23T00:01:52.685Z,94.18
2017-11-23T00:03:47.218Z,94.74
2017-11-23T00:04:47.639Z,94.84
2017-11-23T00:09:48.826Z,94.84
2017-11-23T00:10:48.828Z,94.65
2017-11-23T00:17:30.730Z,94.08
2017-11-23T00:18:23.205Z,94.46
2017-11-23T00:20:18.003Z,94.93
2017-11-23T00:21:18.142Z,94.18
2017-11-23T00:23:13.782Z,94.74
2017-11-23T00:24:14.688Z,94.84
2017-11-23T00:29:15.871Z,93.60
2017-11-23T00:30:16.264Z,93.51
2017-11-23T00:32:32.878Z,93.80
2017-11-23T00:33:11.294Z,93.89
2017-11-23T00:35:06.769Z,93.70
2017-11-23T00:36:06.427Z,93.60
2017-11-23T00:39:34.976Z,93.32
2017-11-23T00:40:34.577Z,93.18
2017-11-23T00:41:39.619Z,93.18
2017-11-23T00:42:35.422Z,93.04
2017-11-23T00:43:40.230Z,93.37
2017-11-23T00:45:00.220Z,93.23
2017-11-23T00:45:36.715Z,93.32
2017-11-23T00:46:37.128Z,93.51
2017-11-23T00:47:37.551Z,93.41
2017-11-23T00:48:37.968Z,93.70
2017-11-23T00:49:38.394Z,93.60
2017-11-23T00:50:38.812Z,93.41
2017-11-23T00:51:39.256Z,93.70
2017-11-23T00:52:39.665Z,93.51
2017-11-23T00:53:40.094Z,93.99
2017-11-23T00:54:40.509Z,94.37
2017-11-23T00:55:40.930Z,94.18
2017-11-23T00:56:41.355Z,94.46
2017-11-23T00:57:41.783Z,94.18
2017-11-23T00:58:42.202Z,94.18
2017-11-23T00:59:42.620Z,94.18
2017-11-23T01:00:43.047Z,93.99
2017-11-23T01:01:43.466Z,94.27
2017-11-23T01:02:43.918Z,93.89
2017-11-23T01:03:44.313Z,93.99
2017-11-23T01:04:44.733Z,93.80
2017-11-23T01:05:45.159Z,94.74
2017-11-23T01:06:45.581Z,94.65
2017-11-23T01:07:46.003Z,94.65
2017-11-23T01:08:46.435Z,94.74
2017-11-23T01:09:46.859Z,94.84
2017-11-23T01:10:47.300Z,94.74
2017-11-23T01:11:47.697Z,94.37
2017-11-23T01:12:48.120Z,94.56
2017-11-23T01:13:48.546Z,94.74
2017-11-23T01:14:48.965Z,94.74
2017-11-23T01:15:49.388Z,94.74
2017-11-23T01:16:49.806Z,94.46
2017-11-23T01:17:50.232Z,94.74
2017-11-23T01:18:50.653Z,94.74
2017-11-23T01:19:51.078Z,94.56
2017-11-23T01:20:51.504Z,94.27
2017-11-23T01:21:51.925Z,94.74
2017-11-23T01:22:52.365Z,95.31
2017-11-23T01:23:52.781Z,95.03
2017-11-23T01:24:53.198Z,95.22
2017-11-23T01:25:53.616Z,95.12
2017-11-23T01:26:54.046Z,94.93
2017-11-23T01:27:54.464Z,95.03
2017-11-23T01:28:54.897Z,95.12
2017-11-23T01:29:55.314Z,94.84
2017-11-23T01:30:55.732Z,95.70
2017-11-23T01:31:56.150Z,95.41
2017-11-23T01:32:56.575Z,95.60
2017-11-23T01:33:56.999Z,95.51
2017-11-23T01:34:57.430Z,95.60
2017-11-23T01:35:57.849Z,95.70
2017-11-23T01:36:58.271Z,95.70
2017-11-23T01:37:58.692Z,95.70
2017-11-23T01:38:59.114Z,95.60
2017-11-23T01:39:59.544Z,95.51
2017-11-23T01:40:59.974Z,96.08
2017-11-23T01:42:00.405Z,95.89
2017-11-23T01:43:00.806Z,96.17
2017-11-23T01:44:01.233Z,95.79
2017-11-23T01:45:01.653Z,95.98
2017-11-23T01:46:02.077Z,95.51
2017-11-23T01:47:02.498Z,95.60
2017-11-23T01:48:02.931Z,95.60
2017-11-23T01:49:03.340Z,95.70
2017-11-23T01:50:03.764Z,95.51
2017-11-23T01:51:04.192Z,96.36
2017-11-23T01:52:04.610Z,96.26
2017-11-23T01:53:05.034Z,95.89
2017-11-23T01:54:05.454Z,96.17
2017-11-23T01:55:05.880Z,96.36
2017-11-23T01:56:06.302Z,96.45
2017-11-23T01:57:06.730Z,96.26
2017-11-23T01:58:07.150Z,96.64
2017-11-23T01:59:07.570Z,96.26
2017-11-23T02:00:07.994Z,96.64
2017-11-23T02:01:08.413Z,96.64
2017-11-23T02:02:08.835Z,96.36
2017-11-23T02:03:09.270Z,96.36
2017-11-23T02:04:09.692Z,96.64
2017-11-23T02:05:10.106Z,96.83
2017-11-23T02:06:10.536Z,96.55
2017-11-23T02:07:10.957Z,96.83
2017-11-23T02:08:11.373Z,96.83
2017-11-23T02:09:11.799Z,97.60
2017-11-23T02:10:12.223Z,97.50
2017-11-23T02:11:12.641Z,97.60
2017-11-23T02:12:13.067Z,97.60
2017-11-23T02:13:13.495Z,97.60
2017-11-23T02:14:13.911Z,97.31
2017-11-23T02:15:14.340Z,97.60
2017-11-23T02:16:14.765Z,97.60
2017-11-23T02:17:15.182Z,97.60
2017-11-23T02:18:15.606Z,97.50
2017-11-23T02:19:16.038Z,98.26
2017-11-23T02:20:16.447Z,98.45
2017-11-23T02:21:16.877Z,98.16
2017-11-23T02:22:17.293Z,98.26
2017-11-23T02:23:17.720Z,98.73
2017-11-23T02:24:18.136Z,98.35
2017-11-23T02:25:18.566Z,98.26
2017-11-23T02:26:25.624Z,98.26
2017-11-23T02:27:19.402Z,98.64
2017-11-23T02:28:19.833Z,98.73
2017-11-23T02:31:01.699Z,99.40
2017-11-23T02:31:53.770Z,99.30
2017-11-23T02:33:59.617Z,99.77
2017-11-23T02:38:17.373Z,99.99
2017-11-23T02:38:38.532Z,99.97
2017-11-23T02:40:33.089Z,99.58
2017-11-23T02:41:33.511Z,99.99
2017-11-23T02:43:28.025Z,99.97
2017-11-23T02:44:28.458Z,99.99
2017-11-23T02:46:23.024Z,99.97
2017-11-23T02:47:23.420Z,99.87
2017-11-23T02:49:17.961Z,99.99
2017-11-23T02:50:18.390Z,99.99
2017-11-23T02:52:12.951Z,99.99
2017-11-23T02:53:13.367Z,99.99
2017-11-23T02:55:07.913Z,99.99
2017-11-23T02:56:08.341Z,99.99
2017-11-23T02:58:02.900Z,99.99
2017-11-23T02:59:03.309Z,99.99
2017-11-23T03:00:03.732Z,99.99
2017-11-23T03:01:04.160Z,99.99
2017-11-23T03:02:04.578Z,99.99
2017-11-23T03:03:05.113Z,99.99
2017-11-23T03:04:05.425Z,99.99
2017-11-23T03:05:05.847Z,99.99
2017-11-23T03:06:06.267Z,99.99
2017-11-23T03:07:06.700Z,99.99
2017-11-23T03:08:07.114Z,99.99
2017-11-23T03:09:07.545Z,99.99
2017-11-23T03:10:07.962Z,99.99
2017-11-23T03:11:08.385Z,99.99
2017-11-23T03:12:08.821Z,99.99
2017-11-23T03:13:09.236Z,99.99
2017-11-23T03:14:09.659Z,99.99
2017-11-23T03:15:10.079Z,99.99
2017-11-23T03:16:10.510Z,99.99
2017-11-23T03:17:10.924Z,99.99
2017-11-23T03:19:58.724Z,99.99
2017-11-23T03:20:44.864Z,99.99
2017-11-23T03:23:00.659Z,99.99
2017-11-23T03:23:39.925Z,99.99
2017-11-23T03:25:55.635Z,99.99
2017-11-23T03:28:10.370Z,99.99
2017-11-23T03:28:49.647Z,99.99
2017-11-23T03:30:44.171Z,99.99
2017-11-23T03:31:44.626Z,99.99
2017-11-23T03:34:18.164Z,99.99
2017-11-23T03:37:01.591Z,99.99
2017-11-23T03:37:33.269Z,99.99
2017-11-23T03:39:27.846Z,99.99
2017-11-23T03:42:13.810Z,99.99
2017-11-23T03:42:42.995Z,99.99
2017-11-23T03:46:10.592Z,99.99
2017-11-23T03:47:11.003Z,99.99
2017-11-23T03:48:11.425Z,99.99
2017-11-23T03:49:11.850Z,99.99
2017-11-23T03:50:12.285Z,99.99
2017-11-23T03:51:12.701Z,99.99
2017-11-23T03:52:13.118Z,99.99
2017-11-23T03:53:13.538Z,99.99
2017-11-23T03:54:13.961Z,99.99
2017-11-23T03:55:14.383Z,99.99
2017-11-23T03:56:14.810Z,99.99
2017-11-23T03:57:15.229Z,99.99
2017-11-23T03:58:15.658Z,99.99
2017-11-23T03:59:16.081Z,99.99
2017-11-23T04:00:16.499Z,99.99
2017-11-23T04:01:16.931Z,99.99
2017-11-23T04:02:17.349Z,99.99
2017-11-23T04:03:17.771Z,99.99
2017-11-23T04:04:18.193Z,99.99
2017-11-23T04:05:18.618Z,99.99
2017-11-23T04:06:19.050Z,99.99
2017-11-23T04:07:19.462Z,99.99
2017-11-23T04:08:19.882Z,99.99
2017-11-23T04:09:20.307Z,99.99
2017-11-23T04:10:20.743Z,99.99
2017-11-23T04:11:21.160Z,99.99
2017-11-23T04:12:21.586Z,99.99
2017-11-23T04:13:21.997Z,99.99
2017-11-23T04:14:22.421Z,99.99
2017-11-23T04:15:22.845Z,99.99
2017-11-23T04:16:23.283Z,99.99
2017-11-23T04:17:23.688Z,99.99
2017-11-23T04:18:24.119Z,99.99
2017-11-23T04:19:24.531Z,99.99
2017-11-23T04:20:24.955Z,99.99
2017-11-23T04:21:25.376Z,99.99
2017-11-23T04:22:25.803Z,99.99
2017-11-23T04:23:26.224Z,99.99
2017-11-23T04:24:26.645Z,99.99
2017-11-23T04:25:27.068Z,99.99
2017-11-23T04:26:27.501Z,99.99
2017-11-23T04:27:27.914Z,99.99
2017-11-23T04:28:28.345Z,99.99
2017-11-23T04:29:28.770Z,99.99
2017-11-23T04:30:29.185Z,99.99
2017-11-23T04:31:29.607Z,99.99
2017-11-23T04:32:30.028Z,99.99
2017-11-23T04:33:30.449Z,99.99
2017-11-23T04:34:30.872Z,99.99
2017-11-23T04:35:31.299Z,99.73
2017-11-23T04:36:31.716Z,99.73
2017-11-23T04:37:38.847Z,99.54
2017-11-23T04:38:32.562Z,99.54
2017-11-23T04:39:32.987Z,99.16
2017-11-23T04:40:33.407Z,99.54
2017-11-23T04:41:33.831Z,99.91
2017-11-23T04:42:34.259Z,99.54
2017-11-23T04:43:34.681Z,99.73
2017-11-23T04:44:35.098Z,99.44
2017-11-23T04:45:35.523Z,99.26
2017-11-23T04:46:35.948Z,98.87
2017-11-23T04:47:36.370Z,98.68
2017-11-23T04:48:36.790Z,98.87
2017-11-23T04:49:37.213Z,98.78
2017-11-23T04:50:37.635Z,98.78
2017-11-23T04:51:38.068Z,98.87
2017-11-23T04:52:38.481Z,98.97
2017-11-23T04:53:38.900Z,99.44
2017-11-23T04:54:39.328Z,99.26
2017-11-23T04:55:39.747Z,98.11
2017-11-23T04:56:40.171Z,98.68
2017-11-23T04:57:40.591Z,98.68
2017-11-23T04:58:41.024Z,98.11
2017-11-23T04:59:41.436Z,98.21
2017-11-23T05:00:41.857Z,98.11
2017-11-23T05:01:42.280Z,98.21
2017-11-23T05:02:42.722Z,98.11
2017-11-23T05:03:43.127Z,98.11
2017-11-23T05:04:43.557Z,98.11
2017-11-23T05:05:43.973Z,98.30
2017-11-23T05:06:44.397Z,98.11
2017-11-23T05:07:44.821Z,98.59
2017-11-23T05:08:45.245Z,98.40
2017-11-23T05:10:09.349Z,98.21
2017-11-23T05:12:20.183Z,98.59
2017-11-23T05:15:01.657Z,98.68
2017-11-23T05:18:58.420Z,98.97
2017-11-23T05:19:24.137Z,98.97
2017-11-23T05:21:39.819Z,99.44
2017-11-23T05:25:06.428Z,99.35
2017-11-23T05:26:06.848Z,99.35
2017-11-23T05:29:08.688Z,99.73
2017-11-23T05:32:48.891Z,99.73
2017-11-23T05:35:21.899Z,99.82
2017-11-23T05:37:18.307Z,99.99
2017-11-23T05:38:18.730Z,99.99
2017-11-23T05:41:46.376Z,99.99
2017-11-23T05:42:46.787Z,99.99
2017-11-23T05:44:42.370Z,99.99
2017-11-23T05:47:08.308Z,99.99
2017-11-23T05:49:17.519Z,99.99
2017-11-23T05:50:12.175Z,99.99
2017-11-23T05:52:06.787Z,99.99
2017-11-23T05:53:07.150Z,99.99
2017-11-23T05:55:02.725Z,99.99
2017-11-23T05:57:17.387Z,99.99
2017-11-23T06:01:09.155Z,99.99
2017-11-23T06:02:09.556Z,99.99
2017-11-23T06:03:09.988Z,99.99
2017-11-23T06:04:10.405Z,99.99
2017-11-23T06:05:10.828Z,99.99
2017-11-23T06:06:11.247Z,99.99
2017-11-23T06:07:11.674Z,99.99
2017-11-23T06:08:12.096Z,99.99
2017-11-23T06:09:27.424Z,99.99
2017-11-23T06:10:12.945Z,99.99
2017-11-23T06:12:46.501Z,99.99
2017-11-23T06:15:08.925Z,99.99
2017-11-23T06:16:01.578Z,99.99
2017-11-23T06:17:57.211Z,99.99
2017-11-23T06:22:04.690Z,99.99
2017-11-23T06:23:05.116Z,99.99
2017-11-23T06:28:05.835Z,99.99
2017-11-23T06:29:06.250Z,99.99
2017-11-23T06:31:00.797Z,99.99
2017-11-23T06:32:01.216Z,99.99
2017-11-23T06:33:59.755Z,99.99
2017-11-23T06:35:00.161Z,99.99
2017-11-23T06:36:00.583Z,99.99
2017-11-23T06:37:01.003Z,99.99
2017-11-23T06:38:01.514Z,99.99
2017-11-23T06:39:01.850Z,99.99
2017-11-23T06:40:02.291Z,99.99
2017-11-23T06:41:02.695Z,99.99
2017-11-23T06:43:48.647Z,99.99
2017-11-23T06:44:49.058Z,99.99
2017-11-23T06:46:43.692Z,99.99
2017-11-23T06:47:44.116Z,99.99
2017-11-23T06:49:38.691Z,99.99
2017-11-23T06:50:39.087Z,99.99
2017-11-23T06:52:33.631Z,99.99
2017-11-23T06:53:34.054Z,99.99
2017-11-23T06:55:28.623Z,99.99
2017-11-23T06:56:29.028Z,99.99
2017-11-23T06:58:23.628Z,99.99
2017-11-23T06:59:24.031Z,99.99
2017-11-23T07:01:18.555Z,99.99
2017-11-23T07:02:18.972Z,99.99
2017-11-23T07:04:13.535Z,99.99
2017-11-23T07:05:13.952Z,99.99
2017-11-23T07:07:09.492Z,99.99
2017-11-23T07:08:09.914Z,99.99
2017-11-23T07:10:04.485Z,99.99
2017-11-23T07:11:04.889Z,99.99
2017-11-23T07:12:59.433Z,99.99
2017-11-23T07:13:59.860Z,99.99
2017-11-23T07:15:54.437Z,99.99
2017-11-23T07:16:54.838Z,99.99
2017-11-23T07:18:49.389Z,99.99
2017-11-23T07:19:49.814Z,99.99
2017-11-23T07:21:44.393Z,99.99
2017-11-23T07:22:44.800Z,99.99
2017-11-23T07:24:39.366Z,99.99
2017-11-23T07:25:39.778Z,99.99
2017-11-23T07:27:34.328Z,99.99
2017-11-23T07:28:34.753Z,99.99
2017-11-23T07:30:29.330Z,99.99
2017-11-23T07:31:29.743Z,99.99
2017-11-23T07:33:24.292Z,99.99
2017-11-23T07:34:24.721Z,99.99
2017-11-23T07:36:20.279Z,99.99
2017-11-23T07:37:20.684Z,99.99
2017-11-23T07:39:15.221Z,99.99
2017-11-23T07:40:15.651Z,99.99
2017-11-23T07:42:10.214Z,99.99
2017-11-23T07:43:10.629Z,99.99
2017-11-23T07:45:05.170Z,99.99
2017-11-23T07:46:05.601Z,99.99
2017-11-23T07:48:00.161Z,99.99
2017-11-23T07:49:00.580Z,99.99
2017-11-23T07:50:55.147Z,99.99
2017-11-23T07:51:55.560Z,99.99
2017-11-23T07:53:50.099Z,99.99
2017-11-23T07:54:50.530Z,99.99
2017-11-23T07:56:45.088Z,99.99
2017-11-23T07:57:45.498Z,99.99
2017-11-23T07:59:40.049Z,99.99
2017-11-23T08:00:40.480Z,99.99
2017-11-23T08:02:35.042Z,99.99
2017-11-23T08:03:35.451Z,99.99
2017-11-23T08:05:29.993Z,99.99
2017-11-23T08:06:30.445Z,99.99
2017-11-23T08:08:24.998Z,99.99
2017-11-23T08:09:25.408Z,99.99
2017-11-23T08:11:19.957Z,99.99
2017-11-23T08:12:20.385Z,99.99
2017-11-23T08:14:14.944Z,99.99
2017-11-23T08:15:15.354Z,99.99
2017-11-23T08:17:09.904Z,99.99
2017-11-23T08:18:10.351Z,99.99
2017-11-23T08:20:05.881Z,99.99
2017-11-23T08:21:06.292Z,99.99
2017-11-23T08:23:01.840Z,99.99
2017-11-23T08:24:02.248Z,99.99
2017-11-23T08:25:56.802Z,99.99
2017-11-23T08:26:57.251Z,99.99
2017-11-23T08:28:51.993Z,99.99
2017-11-23T08:29:52.363Z,99.99
2017-11-23T08:31:47.041Z,99.99
2017-11-23T08:32:47.367Z,99.99
2017-11-23T08:34:42.139Z,99.99
2017-11-23T08:35:42.479Z,99.99
2017-11-23T08:37:37.180Z,99.99
2017-11-23T08:38:37.567Z,99.99
2017-11-23T08:40:32.234Z,99.99
2017-11-23T08:41:32.582Z,99.99
2017-11-23T08:42:33.015Z,99.99
2017-11-23T08:43:33.439Z,99.99
2017-11-23T08:44:33.868Z,99.99
2017-11-23T08:45:34.301Z,99.99
2017-11-23T08:46:34.714Z,99.99
2017-11-23T08:47:35.154Z,99.99
2017-11-23T08:48:35.606Z,99.99
2017-11-23T08:49:35.994Z,99.99
2017-11-23T08:50:36.414Z,99.99
2017-11-23T08:51:36.846Z,99.99
2017-11-23T08:52:37.268Z,99.99
2017-11-23T08:53:37.692Z,99.99
2017-11-23T08:54:38.118Z,99.99
2017-11-23T08:55:38.541Z,99.99
2017-11-23T08:56:38.969Z,99.99
2017-11-23T08:57:39.413Z,99.99
2017-11-23T08:58:39.850Z,99.99
2017-11-23T08:59:40.261Z,99.99
2017-11-23T09:00:40.673Z,99.99
2017-11-23T09:01:41.098Z,99.99
2017-11-23T09:02:41.564Z,99.99
2017-11-23T09:03:41.949Z,99.99
2017-11-23T09:04:42.376Z,99.99
2017-11-23T09:05:42.801Z,99.99
2017-11-23T09:06:43.226Z,99.99
2017-11-23T09:07:43.652Z,99.99
2017-11-23T09:08:44.092Z,99.99
2017-11-23T09:09:44.518Z,99.99
2017-11-23T09:10:44.937Z,99.99
2017-11-23T09:11:45.355Z,99.99
2017-11-23T09:12:45.795Z,99.99
2017-11-23T09:13:46.217Z,99.99
2017-11-23T09:14:46.640Z,99.99
2017-11-23T09:15:47.069Z,99.99
2017-11-23T09:16:47.486Z,99.99
2017-11-23T09:17:47.921Z,99.99
2017-11-23T09:18:48.361Z,99.99
2017-11-23T09:19:48.783Z,99.99
2017-11-23T09:20:49.194Z,99.99
2017-11-23T09:21:49.623Z,99.99
2017-11-23T09:22:50.045Z,99.98
2017-11-23T09:23:50.473Z,99.99
2017-11-23T09:24:50.901Z,99.99
2017-11-23T09:25:51.331Z,99.98
2017-11-23T09:26:51.757Z,99.99
2017-11-23T09:27:52.187Z,99.79
2017-11-23T09:28:52.607Z,99.98
2017-11-23T09:29:53.047Z,99.99
2017-11-23T09:30:53.460Z,99.99
2017-11-23T09:31:53.905Z,99.99
2017-11-23T09:32:54.316Z,99.99
2017-11-23T09:33:54.742Z,99.99
2017-11-23T09:34:55.173Z,99.99
2017-11-23T09:35:55.600Z,99.99
2017-11-23T09:36:56.024Z,99.99
2017-11-23T09:37:56.450Z,99.99
2017-11-23T09:38:56.878Z,99.99
2017-11-23T09:39:57.306Z,99.99
2017-11-23T09:40:57.748Z,99.99
2017-11-23T09:41:58.158Z,99.99
2017-11-23T09:42:58.583Z,99.99
2017-11-23T09:43:59.012Z,99.99
2017-11-23T09:44:59.439Z,99.99
2017-11-23T09:45:59.871Z,99.99
2017-11-23T09:47:00.316Z,99.99
2017-11-23T09:48:00.717Z,99.99
2017-11-23T09:49:01.149Z,99.99
2017-11-23T09:50:01.579Z,99.99
2017-11-23T09:51:02.002Z,99.99
2017-11-23T09:52:02.426Z,99.99
2017-11-23T09:53:02.854Z,99.99
2017-11-23T09:54:03.279Z,99.99
2017-11-23T09:55:03.704Z,99.99
2017-11-23T09:56:04.135Z,99.99
2017-11-23T09:57:04.589Z,99.99
2017-11-23T09:58:04.993Z,99.99
2017-11-23T09:59:05.421Z,99.99
2017-11-23T10:00:05.863Z,99.94
2017-11-23T10:01:06.273Z,99.99
2017-11-23T10:02:06.704Z,99.84
2017-11-23T10:03:07.126Z,99.46
2017-11-23T10:04:07.560Z,99.75
2017-11-23T10:05:07.990Z,99.08
2017-11-23T10:06:08.408Z,99.27
2017-11-23T10:07:08.843Z,99.41
2017-11-23T10:08:09.266Z,99.37
2017-11-23T10:09:09.698Z,99.37
2017-11-23T10:10:10.119Z,99.46
2017-11-23T10:11:25.400Z,99.41
2017-11-23T10:12:10.982Z,99.13
2017-11-23T10:13:11.410Z,98.75
2017-11-23T10:14:11.859Z,98.36
2017-11-23T10:15:12.264Z,98.08
2017-11-23T10:16:12.694Z,97.08
2017-11-23T10:17:13.120Z,96.61
2017-11-23T10:18:13.549Z,96.70
2017-11-23T10:19:13.980Z,96.51
2017-11-23T10:20:14.420Z,96.22
2017-11-23T10:21:14.835Z,95.98
2017-11-23T10:22:15.269Z,94.56
2017-11-23T10:23:15.694Z,93.79
2017-11-23T10:24:16.126Z,92.65
2017-11-23T10:25:16.558Z,92.69
2017-11-23T10:26:16.987Z,91.93
2017-11-23T10:27:17.425Z,91.69
2017-11-23T10:29:18.272Z,89.30
2017-11-23T10:30:18.711Z,89.78
2017-11-23T10:31:19.143Z,88.73
2017-11-23T10:32:19.589Z,89.30
2017-11-23T10:33:20.012Z,89.59
2017-11-23T10:34:21.401Z,89.44
2017-11-23T10:35:20.874Z,89.39
2017-11-23T10:36:21.307Z,89.30
2017-11-23T10:37:21.745Z,89.49
2017-11-23T10:38:22.910Z,89.44
2017-11-23T10:39:22.609Z,88.58
2017-11-23T10:40:23.048Z,88.54
2017-11-23T10:41:23.479Z,88.92
2017-11-23T10:42:23.909Z,89.11
2017-11-23T10:43:24.341Z,88.82
2017-11-23T10:44:24.775Z,89.39
2017-11-23T10:45:25.210Z,89.30
2017-11-23T10:46:25.651Z,89.92
2017-11-23T10:47:26.076Z,89.73
2017-11-23T10:48:26.513Z,89.73
2017-11-23T10:49:26.943Z,90.21
2017-11-23T10:50:27.376Z,90.97
2017-11-23T10:51:27.806Z,90.78
2017-11-23T10:52:28.237Z,90.69
2017-11-23T10:53:28.669Z,90.69
2017-11-23T10:54:29.101Z,90.21
2017-11-23T10:55:29.534Z,89.73
2017-11-23T10:56:29.969Z,90.64
2017-11-23T10:57:30.396Z,89.64
2017-11-23T10:58:30.828Z,90.40
2017-11-23T10:59:31.266Z,90.69
2017-11-23T11:00:31.694Z,90.69
2017-11-23T11:01:32.126Z,90.59
2017-11-23T11:02:32.557Z,90.69
2017-11-23T11:03:32.999Z,91.16
2017-11-23T11:04:33.419Z,91.36
2017-11-23T11:05:33.852Z,91.64
2017-11-23T11:06:34.288Z,91.83
2017-11-23T11:07:55.875Z,91.93
2017-11-23T11:08:35.150Z,91.64
2017-11-23T11:09:35.577Z,92.02
2017-11-23T11:10:36.013Z,91.83
2017-11-23T11:11:36.436Z,92.12
2017-11-23T11:12:36.868Z,91.07
2017-11-23T11:14:05.423Z,91.83
2017-11-23T11:14:37.729Z,91.93
2017-11-23T11:15:38.164Z,91.64
2017-11-23T11:16:38.613Z,92.02
2017-11-23T11:17:39.028Z,92.79
2017-11-23T11:18:39.480Z,91.88
2017-11-23T11:19:39.882Z,92.65
2017-11-23T11:20:40.311Z,93.31
2017-11-23T11:21:40.762Z,92.55
2017-11-23T11:22:41.177Z,91.98
2017-11-23T11:23:41.609Z,92.65
2017-11-23T11:24:42.031Z,92.36
2017-11-23T11:25:42.466Z,92.74
2017-11-23T11:26:42.896Z,92.46
2017-11-23T11:27:43.327Z,93.12
2017-11-23T11:28:43.762Z,93.22
2017-11-23T11:29:44.188Z,93.22
2017-11-23T11:30:44.612Z,92.74
2017-11-23T11:31:45.046Z,92.83
2017-11-23T11:32:45.472Z,93.12
2017-11-23T11:33:45.903Z,92.93
2017-11-23T11:34:46.479Z,92.74
2017-11-23T11:35:49.434Z,92.74
2017-11-23T11:38:51.587Z,93.02
2017-11-23T11:39:20.732Z,93.22
2017-11-23T11:41:15.277Z,93.31
2017-11-23T11:42:15.712Z,92.74
2017-11-23T11:44:10.298Z,92.83
2017-11-23T11:45:10.705Z,93.31
2017-11-23T11:47:05.513Z,93.17
2017-11-23T11:48:05.902Z,92.60
2017-11-23T11:50:00.450Z,92.36
2017-11-23T11:51:00.889Z,92.50
2017-11-23T11:52:55.454Z,92.83
2017-11-23T11:53:58.699Z,93.17
2017-11-23T11:55:51.411Z,93.60
2017-11-23T11:56:51.844Z,92.93
2017-11-23T11:58:46.414Z,92.93
2017-11-23T11:59:46.832Z,93.22
2017-11-23T12:01:41.400Z,93.51
2017-11-23T12:02:41.828Z,93.41
2017-11-23T12:04:36.415Z,93.51
2017-11-23T12:05:36.829Z,93.65
2017-11-23T12:07:31.384Z,93.55
2017-11-23T12:08:31.830Z,93.17
2017-11-23T12:10:26.392Z,93.17
2017-11-23T12:11:26.808Z,93.46
2017-11-23T12:13:21.408Z,92.41
2017-11-23T12:14:21.807Z,93.07
2017-11-23T12:16:20.326Z,93.46
2017-11-23T12:17:20.776Z,93.07
2017-11-23T12:18:21.192Z,93.36
2017-11-23T12:19:21.622Z,93.07
2017-11-23T12:20:22.051Z,93.36
2017-11-23T12:21:22.479Z,93.17
2017-11-23T12:22:22.907Z,93.84
2017-11-23T12:23:23.343Z,94.03
2017-11-23T12:24:23.778Z,93.65
2017-11-23T12:25:24.203Z,93.65
2017-11-23T12:26:24.625Z,92.88
2017-11-23T12:27:25.059Z,93.84
2017-11-23T12:28:25.488Z,93.65
2017-11-23T12:29:25.930Z,93.65
2017-11-23T12:30:26.342Z,93.55
2017-11-23T12:31:26.776Z,93.74
2017-11-23T12:32:27.207Z,93.36
2017-11-23T12:33:27.637Z,92.88
2017-11-23T12:34:28.059Z,93.55
2017-11-23T12:35:28.493Z,93.26
2017-11-23T12:36:28.921Z,93.55
2017-11-23T12:37:29.350Z,93.46
2017-11-23T12:38:29.780Z,93.17
2017-11-23T12:39:30.209Z,93.84
2017-11-23T12:40:30.638Z,93.46
2017-11-23T12:41:31.068Z,93.26
2017-11-23T12:42:31.498Z,93.74
2017-11-23T12:43:31.922Z,93.84
2017-11-23T12:44:32.354Z,93.41
2017-11-23T12:45:32.784Z,93.88
2017-11-23T12:46:33.212Z,93.79
2017-11-23T12:47:33.643Z,94.22
2017-11-23T12:48:34.078Z,94.79
2017-11-23T12:49:34.509Z,94.79
2017-11-23T12:50:34.933Z,94.51
2017-11-23T12:51:35.358Z,94.03
2017-11-23T12:52:35.784Z,94.03
2017-11-23T12:53:38.192Z,94.89
2017-11-23T12:54:36.646Z,94.70
2017-11-23T12:55:37.078Z,94.51
2017-11-23T12:56:37.505Z,94.12
2017-11-23T12:57:37.929Z,94.51
2017-11-23T12:58:38.367Z,93.93
2017-11-23T12:59:38.792Z,94.41
2017-11-23T13:00:40.071Z,93.65
2017-11-23T13:01:39.647Z,94.31
2017-11-23T13:02:40.078Z,93.65
2017-11-23T13:03:40.503Z,93.65
2017-11-23T13:04:40.934Z,93.93
2017-11-23T13:05:41.360Z,94.22
2017-11-23T13:06:41.798Z,94.31
2017-11-23T13:07:42.219Z,94.22
2017-11-23T13:08:42.647Z,94.12
2017-11-23T13:09:43.084Z,94.79
2017-11-23T13:10:43.513Z,94.31
2017-11-23T13:11:43.935Z,94.31
2017-11-23T13:12:44.367Z,94.22
2017-11-23T13:13:44.802Z,94.51
2017-11-23T13:14:45.225Z,94.70
2017-11-23T13:15:45.651Z,94.51
2017-11-23T13:16:46.080Z,93.74
2017-11-23T13:17:46.512Z,93.36
2017-11-23T13:18:46.940Z,94.22
2017-11-23T13:19:47.393Z,94.22
2017-11-23T13:20:47.800Z,94.41
2017-11-23T13:21:48.225Z,93.55
2017-11-23T13:22:48.660Z,93.55
2017-11-23T13:23:49.137Z,94.41
2017-11-23T13:24:49.526Z,94.22
2017-11-23T13:25:49.949Z,94.22
2017-11-23T13:26:50.407Z,94.22
2017-11-23T13:27:50.798Z,94.12
2017-11-23T13:28:51.232Z,94.12
2017-11-23T13:29:51.665Z,94.31
2017-11-23T13:30:52.095Z,94.31
2017-11-23T13:31:52.521Z,94.03
2017-11-23T13:32:52.946Z,94.31
2017-11-23T13:33:53.383Z,93.93
2017-11-23T13:34:53.803Z,94.31
2017-11-23T13:35:54.239Z,94.12
2017-11-23T13:36:54.673Z,94.22
2017-11-23T13:37:55.089Z,94.22
2017-11-23T13:38:55.531Z,94.41
2017-11-23T13:39:55.954Z,94.41
2017-11-23T13:40:56.380Z,94.70
2017-11-23T13:41:56.816Z,94.89
2017-11-23T13:42:57.241Z,94.70
2017-11-23T13:43:57.663Z,94.79
2017-11-23T13:44:58.103Z,94.12
2017-11-23T13:45:58.522Z,94.12
2017-11-23T13:46:58.963Z,94.51
2017-11-23T13:47:59.381Z,94.03
2017-11-23T13:48:59.810Z,94.22
2017-11-23T13:50:00.243Z,94.12
2017-11-23T13:51:00.668Z,94.31
2017-11-23T13:52:01.106Z,94.03
2017-11-23T13:53:01.532Z,94.12
2017-11-23T13:54:01.959Z,94.22
2017-11-23T13:55:02.391Z,94.31
2017-11-23T13:56:02.816Z,93.74
2017-11-23T13:57:03.242Z,93.84
2017-11-23T13:58:03.676Z,93.65
2017-11-23T13:59:04.105Z,93.65
2017-11-23T14:00:04.530Z,93.65
2017-11-23T14:01:04.960Z,93.84
2017-11-23T14:02:05.386Z,93.84
2017-11-23T14:03:05.818Z,93.26
2017-11-23T14:04:06.248Z,93.55
2017-11-23T14:05:06.673Z,93.60
2017-11-23T14:06:07.106Z,93.74
2017-11-23T14:07:07.544Z,93.07
2017-11-23T14:08:07.960Z,93.46
2017-11-23T14:09:08.390Z,93.84
2017-11-23T14:10:08.819Z,93.07
2017-11-23T14:11:09.252Z,93.26
2017-11-23T14:12:09.684Z,93.07
2017-11-23T14:13:10.105Z,93.36
2017-11-23T14:14:10.536Z,93.46
2017-11-23T14:15:10.967Z,92.93
2017-11-23T14:16:11.391Z,93.26
2017-11-23T14:17:11.825Z,92.60
2017-11-23T14:18:12.251Z,92.69
2017-11-23T14:19:12.683Z,92.41
2017-11-23T14:20:13.114Z,92.69
2017-11-23T14:21:13.537Z,92.21
2017-11-23T14:22:13.972Z,92.41
2017-11-23T14:23:14.402Z,92.41
2017-11-23T14:24:14.825Z,92.69
2017-11-23T14:25:15.258Z,93.17
2017-11-23T14:26:15.705Z,93.12
2017-11-23T14:27:16.116Z,92.50
2017-11-23T14:28:16.546Z,92.69
2017-11-23T14:29:16.973Z,92.69
2017-11-23T14:30:17.402Z,92.26
2017-11-23T14:31:17.844Z,91.64
2017-11-23T14:32:18.259Z,92.21
2017-11-23T14:33:18.694Z,92.12
2017-11-23T14:34:19.118Z,92.41
2017-11-23T14:35:19.550Z,92.83
2017-11-23T14:36:19.979Z,92.55
2017-11-23T14:37:20.408Z,92.55
2017-11-23T14:38:20.836Z,91.88
2017-11-23T14:39:21.268Z,91.69
2017-11-23T14:40:21.696Z,91.21
2017-11-23T14:41:22.131Z,91.97
2017-11-23T14:42:22.557Z,91.21
2017-11-23T14:43:22.993Z,91.50
2017-11-23T14:44:23.425Z,91.50
2017-11-23T14:45:23.849Z,91.97
2017-11-23T14:46:24.273Z,91.69
2017-11-23T14:47:24.711Z,92.74
2017-11-23T14:48:25.134Z,91.97
2017-11-23T14:49:25.561Z,91.88
2017-11-23T14:50:25.996Z,91.83
2017-11-23T14:51:26.419Z,92.02
2017-11-23T14:52:26.850Z,92.83
2017-11-23T14:53:27.285Z,92.41
2017-11-23T14:54:27.708Z,92.21
2017-11-23T14:55:28.137Z,92.50
2017-11-23T14:56:28.569Z,92.41
2017-11-23T14:57:29.004Z,92.31
2017-11-23T14:58:29.429Z,92.97
2017-11-23T14:59:29.855Z,93.26
2017-11-23T15:00:30.286Z,92.97
2017-11-23T15:01:30.714Z,92.88
2017-11-23T15:02:31.145Z,93.36
2017-11-23T15:03:31.572Z,93.74
2017-11-23T15:04:32.001Z,93.84
2017-11-23T15:05:32.431Z,93.46
2017-11-23T15:06:32.926Z,93.65
2017-11-23T15:07:33.325Z,93.46
2017-11-23T15:08:33.732Z,93.84
2017-11-23T15:09:34.163Z,93.84
2017-11-23T15:10:34.593Z,93.93
2017-11-23T15:11:35.005Z,94.70
2017-11-23T15:12:35.512Z,94.89
2017-11-23T15:13:35.867Z,95.27
2017-11-23T15:14:36.293Z,95.94
2017-11-23T15:15:36.722Z,95.56
2017-11-23T15:16:37.152Z,94.79